Time;durP1;ratioP1;P1;durP2;ratioP2;P2;SDS_P1;SDS_P2;PMS_P1;PMS_P2;Temp;Humidity;BMP_temperature;BMP_pressure;BME280_temperature;BME280_humidity;BME280_pressure;Samples;Min_cycle;Max_cycle;Signal;HPM_P1;HPM_P2
2023/02/11 00:01:37;;;;;;;63.30;29.95;;;5.30;99.90;;;3.70;88.55;102034.16;4945500;28;20034;-78
2023/02/11 00:04:05;;;;;;;69.03;29.33;;;5.30;99.90;;;3.73;88.40;102060.19;4973935;28;20028;-77
2023/02/11 00:06:33;;;;;;;61.08;29.95;;;5.30;99.90;;;3.73;88.39;102057.59;4966701;28;20030;-76
2023/02/11 00:08:59;;;;;;;61.50;29.63;;;5.30;99.90;;;3.74;88.58;102067.16;4951574;28;20030;-79
2023/02/11 00:11:29;;;;;;;66.90;30.80;;;5.30;99.90;;;3.74;88.79;102081.91;4971366;28;20499;-79
2023/02/11 00:14:00;;;;;;;64.38;31.00;;;5.30;99.90;;;3.73;88.90;102088.00;4956582;28;20022;-78
2023/02/11 00:16:26;;;;;;;71.93;29.50;;;5.30;99.90;;;3.73;88.80;102091.47;4967684;28;20069;-78
2023/02/11 00:18:58;;;;;;;79.03;31.90;;;5.30;99.90;;;3.73;89.17;102078.44;4987257;28;20154;-77
2023/02/11 00:21:25;;;;;;;65.43;29.92;;;5.30;99.90;;;3.71;89.26;102061.94;4960881;28;20116;-78
2023/02/11 00:23:52;;;;;;;67.25;31.50;;;5.30;99.90;;;3.72;89.26;102076.72;4943381;28;20050;-76
2023/02/11 00:26:22;;;;;;;67.35;31.17;;;5.40;99.90;;;3.72;89.57;102063.69;4963140;28;20105;-77
2023/02/11 00:28:52;;;;;;;65.35;29.85;;;5.30;99.90;;;3.73;89.36;102067.16;4956729;28;20105;-77
2023/02/11 00:31:19;;;;;;;74.78;30.38;;;5.30;99.90;;;3.73;89.85;102075.81;4924304;28;20025;-77
2023/02/11 00:33:46;;;;;;;77.00;31.85;;;5.30;99.90;;;3.74;89.74;102076.69;4960890;28;20036;-76
2023/02/11 00:36:23;;;;;;;77.20;31.60;;;5.30;99.90;;;3.72;90.16;102075.84;4980894;28;20033;-77
2023/02/11 00:38:53;;;;;;;73.20;31.63;;;5.30;99.90;;;3.70;90.16;102076.69;4956278;28;20028;-78
2023/02/11 00:41:19;;;;;;;68.05;31.38;;;5.30;99.90;;;3.70;90.21;102079.28;4978025;28;20041;-78
2023/02/11 00:43:46;;;;;;;70.35;31.08;;;5.30;99.90;;;3.70;90.50;102071.47;4939928;28;20121;-78
2023/02/11 00:46:12;;;;;;;73.07;32.83;;;5.30;99.90;;;3.69;90.65;102066.25;4945620;28;20121;-78
2023/02/11 00:48:39;;;;;;;70.38;30.83;;;5.30;99.90;;;3.69;90.67;102076.69;4946256;28;20113;-78
2023/02/11 00:51:06;;;;;;;73.72;32.88;;;5.30;99.90;;;3.70;90.70;102074.09;4964066;28;20132;-79
2023/02/11 00:53:40;;;;;;;80.72;34.00;;;5.30;99.90;;;3.69;91.31;102067.16;4926508;28;20041;-78
2023/02/11 00:56:07;;;;;;;71.72;30.35;;;5.30;99.90;;;3.67;91.38;102061.06;4928532;28;20042;-77
2023/02/11 00:58:33;;;;;;;71.05;32.25;;;5.30;99.90;;;3.68;91.37;102059.31;4925479;28;20050;-78
2023/02/11 01:01:06;;;;;;;74.75;32.13;;;5.30;99.90;;;3.68;91.46;102052.38;4947071;28;20139;-78
2023/02/11 01:03:32;;;;;;;77.18;31.58;;;5.30;99.90;;;3.69;91.36;102040.22;4965650;28;20054;-76
2023/02/11 01:05:58;;;;;;;71.70;31.08;;;5.30;99.90;;;3.71;92.11;102041.09;4911704;28;20426;-77
2023/02/11 01:08:24;;;;;;;82.70;32.85;;;5.30;99.90;;;3.72;92.00;102041.97;4944220;28;20063;-78
2023/02/11 01:11:07;;;;;;;79.47;34.22;;;5.30;99.90;;;3.69;91.98;102042.81;4943166;28;20048;-77
2023/02/11 01:13:37;;;;;;;72.97;33.08;;;5.30;99.90;;;3.70;92.52;102041.97;4976713;28;20035;-79
2023/02/11 01:16:07;;;;;;;75.18;32.78;;;5.30;99.90;;;3.71;92.81;102048.91;4969534;28;20497;-78
2023/02/11 01:18:34;;;;;;;82.07;33.97;;;5.30;99.90;;;3.66;92.69;102046.28;4948815;28;20220;-77
2023/02/11 01:21:05;;;;;;;74.72;32.60;;;5.30;99.90;;;3.67;92.75;102049.75;4920694;28;21547;-77
2023/02/11 01:23:31;;;;;;;80.22;34.33;;;5.30;99.90;;;3.69;93.41;102061.94;4921676;28;21210;-78
2023/02/11 01:25:56;;;;;;;84.03;34.45;;;5.30;99.90;;;3.72;93.70;102058.47;4926814;28;20070;-76
2023/02/11 01:28:29;;;;;;;78.72;33.25;;;5.30;99.90;;;3.73;93.69;102056.72;4956168;28;20721;-77
2023/02/11 01:30:58;;;;;;;74.35;33.25;;;5.30;99.90;;;3.74;93.97;102069.78;4957058;28;20025;-78
2023/02/11 01:33:24;;;;;;;76.95;34.50;;;5.30;99.90;;;3.73;94.00;102062.81;4947165;28;20181;-78
2023/02/11 01:35:50;;;;;;;80.60;34.08;;;5.30;99.90;;;3.73;94.23;102061.94;4959642;28;21900;-78
2023/02/11 01:38:25;;;;;;;80.00;34.05;;;5.30;99.90;;;3.73;94.54;102054.97;4951905;28;20038;-77
2023/02/11 01:41:04;;;;;;;84.50;32.85;;;5.30;99.90;;;3.74;95.05;102051.53;4941243;28;20611;-76
2023/02/11 01:43:45;;;;;;;81.63;34.20;;;5.30;99.90;;;3.74;94.93;102048.03;4954131;28;20514;-78
2023/02/11 01:46:28;;;;;;;74.10;33.10;;;5.30;99.90;;;3.73;95.39;102043.69;4933752;28;20059;-77
2023/02/11 01:49:08;;;;;;;78.07;33.95;;;5.30;99.90;;;3.74;95.44;102035.91;4934219;28;20052;-78
2023/02/11 01:51:45;;;;;;;74.05;33.95;;;5.30;99.90;;;3.73;95.75;102031.53;4964036;28;20087;-77
2023/02/11 02:00:32;;;;;;;78.65;33.80;;;5.30;99.90;;;3.73;96.55;102008.09;4965767;28;20179;-76
2023/02/11 02:03:09;;;;;;;79.65;34.00;;;5.30;99.90;;;3.72;96.78;102006.38;4981041;28;20030;-78
2023/02/11 02:05:45;;;;;;;87.60;33.63;;;5.30;99.90;;;3.73;96.49;101999.41;4939553;28;20092;-77
2023/02/11 02:08:20;;;;;;;73.28;34.35;;;5.30;99.90;;;3.76;96.86;101987.28;4958260;28;20030;-77
2023/02/11 02:10:52;;;;;;;78.20;34.33;;;5.30;99.90;;;3.77;97.17;101972.50;4989578;28;20418;-77
2023/02/11 02:13:23;;;;;;;96.85;36.65;;;5.40;99.90;;;3.74;97.36;101970.78;4979714;28;20045;-78
2023/02/11 02:16:14;;;;;;;79.53;35.78;;;5.30;99.90;;;3.73;97.90;101974.22;4916020;28;20047;-78
2023/02/11 02:18:58;;;;;;;83.60;36.78;;;5.40;99.90;;;3.75;98.43;101972.50;4942040;28;20040;-78
2023/02/11 02:22:10;;;;;;;86.35;35.00;;;5.30;99.90;;;3.74;98.75;101975.09;4933555;28;20066;-77
2023/02/11 02:25:23;;;;;;;100.22;37.55;;;5.30;99.90;;;3.74;98.94;101981.19;4948948;28;20058;-76
2023/02/11 02:28:16;;;;;;;83.32;35.97;;;5.30;99.90;;;3.74;98.92;101980.28;4941694;28;20166;-77
2023/02/11 02:31:35;;;;;;;77.07;34.38;;;5.40;99.90;;;3.74;99.34;101982.91;4966565;28;20042;-79
2023/02/11 02:34:11;;;;;;;78.50;35.13;;;5.30;99.90;;;3.79;99.80;101978.59;4981023;28;20038;-77
2023/02/11 02:36:56;;;;;;;83.40;36.10;;;5.40;99.90;;;3.83;99.67;101973.38;4937640;28;20042;-78
2023/02/11 02:39:30;;;;;;;79.82;35.75;;;5.40;99.90;;;3.86;99.98;101975.13;4948147;28;20054;-77
2023/02/11 02:41:57;;;;;;;87.05;36.22;;;5.40;99.90;;;3.83;100.00;101975.97;4943451;28;20026;-76
2023/02/11 02:44:23;;;;;;;93.72;37.03;;;5.40;99.90;;;3.84;100.00;101969.88;4939723;28;20124;-78
2023/02/11 02:46:49;;;;;;;83.97;37.33;;;5.40;99.90;;;3.89;100.00;101968.19;4989737;28;20101;-77
2023/02/11 02:49:23;;;;;;;93.47;37.63;;;5.50;99.90;;;3.91;100.00;101978.63;4998069;28;20446;-77
2023/02/11 02:52:34;;;;;;;87.00;37.65;;;5.50;99.90;;;3.93;100.00;101974.28;4944571;28;20038;-77
2023/02/11 02:55:16;;;;;;;86.97;37.65;;;5.50;99.90;;;3.94;100.00;101975.13;4975445;28;20038;-75
2023/02/11 02:58:05;;;;;;;85.65;36.83;;;5.50;99.90;;;3.90;100.00;101972.50;4978660;28;20046;-77
2023/02/11 03:00:42;;;;;;;81.45;37.13;;;5.50;99.90;;;3.92;100.00;101949.06;4973195;28;20034;-78
2023/02/11 03:03:36;;;;;;;84.05;37.72;;;5.50;99.90;;;3.96;100.00;101966.44;4973045;28;20096;-78
2023/02/11 03:06:35;;;;;;;85.25;36.53;;;5.50;99.90;;;3.97;100.00;101951.66;4951179;28;20089;-77
2023/02/11 03:09:29;;;;;;;82.30;37.95;;;5.60;99.90;;;4.03;100.00;101964.72;4920180;28;20500;-77
2023/02/11 03:12:02;;;;;;;80.97;36.40;;;5.60;99.90;;;4.04;100.00;101958.59;4932863;28;20528;-77
2023/02/11 03:14:29;;;;;;;85.68;37.05;;;5.60;99.90;;;4.06;100.00;101962.97;4946997;28;20401;-77
2023/02/11 03:17:06;;;;;;;78.43;36.10;;;5.60;99.90;;;4.09;100.00;101956.91;4950606;28;20046;-78
2023/02/11 03:19:44;;;;;;;81.93;35.97;;;5.60;99.90;;;4.10;100.00;101964.72;4971671;28;20253;-76
2023/02/11 03:23:01;;;;;;;76.90;36.42;;;5.70;99.90;;;4.11;100.00;101973.41;4958458;28;20030;-78
2023/02/11 03:25:36;;;;;;;82.78;38.17;;;5.70;99.90;;;4.13;100.00;101953.41;4917988;28;20034;-79
2023/02/11 03:28:19;;;;;;;81.90;38.38;;;5.70;99.90;;;4.16;100.00;101952.53;4947507;28;20495;-77
2023/02/11 03:31:16;;;;;;;91.07;38.88;;;5.70;99.90;;;4.16;100.00;101936.91;4940774;28;20040;-77
2023/02/11 03:34:07;;;;;;;85.10;38.40;;;5.70;99.90;;;4.17;100.00;101923.88;4973587;28;20034;-77
2023/02/11 03:36:53;;;;;;;95.15;39.35;;;5.70;99.90;;;4.15;100.00;101916.91;4959589;28;20034;-78
2023/02/11 03:39:29;;;;;;;77.75;39.50;;;5.70;99.90;;;4.15;100.00;101902.16;4959678;28;20033;-78
2023/02/11 03:41:57;;;;;;;97.43;40.17;;;5.70;99.90;;;4.17;100.00;101897.81;4954554;28;20144;-77
2023/02/11 03:44:31;;;;;;;83.63;39.45;;;5.80;99.90;;;4.20;100.00;101896.94;4916615;28;20503;-78
2023/02/11 03:46:58;;;;;;;92.18;40.80;;;5.80;99.90;;;4.22;100.00;101888.22;4959448;28;20037;-79
2023/02/11 03:49:27;;;;;;;87.57;39.72;;;5.80;99.90;;;4.25;100.00;101893.44;4950742;28;20073;-77
2023/02/11 03:51:54;;;;;;;77.60;38.05;;;5.80;99.90;;;4.27;100.00;101888.22;4918665;28;20030;-78
2023/02/11 03:54:30;;;;;;;87.43;41.40;;;5.80;99.90;;;4.26;100.00;101882.13;4926158;28;20049;-79
2023/02/11 03:56:59;;;;;;;84.72;38.45;;;5.80;99.90;;;4.28;100.00;101885.63;4945170;28;20085;-79
2023/02/11 03:59:28;;;;;;;89.60;39.20;;;5.80;99.90;;;4.29;100.00;101876.03;4950396;28;20050;-78
2023/02/11 04:01:54;;;;;;;80.22;37.80;;;5.90;99.90;;;4.34;100.00;101882.09;4957662;28;20120;-78
2023/02/11 04:04:20;;;;;;;81.30;39.15;;;5.90;99.90;;;4.36;100.00;101875.16;4912143;28;20038;-77
2023/02/11 04:06:46;;;;;;;73.38;36.95;;;5.90;99.90;;;4.39;100.00;101892.56;4978904;28;20073;-79
2023/02/11 04:09:13;;;;;;;78.40;36.35;;;5.90;99.90;;;4.41;100.00;101890.81;4962621;28;20425;-77
2023/02/11 04:11:44;;;;;;;75.80;37.30;;;6.00;99.90;;;4.42;100.00;101882.09;4979907;28;20030;-79
2023/02/11 04:14:10;;;;;;;77.07;32.85;;;6.00;99.90;;;4.45;100.00;101882.97;4965697;28;20041;-77
2023/02/11 04:16:36;;;;;;;75.32;34.88;;;6.00;99.90;;;4.51;100.00;101884.69;4950743;28;20136;-78
2023/02/11 04:19:02;;;;;;;81.10;37.28;;;6.00;99.90;;;4.52;100.00;101879.47;4951639;28;20034;-78
2023/02/11 04:21:28;;;;;;;79.93;35.90;;;6.00;99.90;;;4.54;100.00;101871.63;4951446;28;20472;-78
2023/02/11 04:23:54;;;;;;;79.55;36.55;;;6.00;99.90;;;4.56;100.00;101863.78;4915725;28;20037;-79
2023/02/11 04:26:25;;;;;;;79.47;37.30;;;6.10;99.90;;;4.56;100.00;101854.25;4969674;28;20574;-80
2023/02/11 04:28:51;;;;;;;74.28;35.83;;;6.10;99.90;;;4.55;100.00;101852.50;4939166;28;20040;-78
2023/02/11 04:31:17;;;;;;;78.10;35.95;;;6.10;99.90;;;4.58;100.00;101847.28;4948119;28;20631;-77
2023/02/11 04:33:42;;;;;;;74.35;36.40;;;6.10;99.90;;;4.61;100.00;101847.25;4943339;28;20045;-77
2023/02/11 04:36:08;;;;;;;78.78;36.72;;;6.10;99.90;;;4.60;100.00;101855.97;4947852;28;20463;-78
2023/02/11 04:38:34;;;;;;;79.45;36.75;;;6.10;99.90;;;4.63;100.00;101855.94;4914706;28;20038;-78
2023/02/11 04:41:09;;;;;;;66.32;33.97;;;6.10;99.90;;;4.61;100.00;101852.47;4938095;28;20113;-79
2023/02/11 04:43:35;;;;;;;80.18;36.28;;;6.20;99.90;;;4.65;100.00;101854.19;4946005;28;20044;-78
2023/02/11 04:46:01;;;;;;;67.22;33.65;;;;;;;4.66;100.00;101847.22;4927166;28;20046;-78
2023/02/11 04:48:34;;;;;;;67.75;35.47;;;6.20;99.90;;;4.67;100.00;101831.59;4942787;28;20590;-78
2023/02/11 04:51:01;;;;;;;69.88;32.47;;;6.20;99.90;;;4.69;100.00;101829.84;4940202;28;20047;-77
2023/02/11 04:53:27;;;;;;;73.22;34.08;;;6.20;99.90;;;4.70;100.00;101828.09;4946987;28;20033;-79
2023/02/11 04:56:00;;;;;;;77.72;35.72;;;6.20;99.90;;;4.73;100.00;101826.34;4933216;28;20934;-78
2023/02/11 04:58:26;;;;;;;72.70;36.40;;;6.30;99.90;;;4.77;100.00;101821.94;4916271;28;20034;-77
2023/02/11 05:00:52;;;;;;;82.88;34.22;;;6.20;99.90;;;4.76;100.00;101806.34;4946693;28;20158;-77
2023/02/11 05:03:17;;;;;;;78.70;36.80;;;6.30;99.90;;;4.76;100.00;101799.38;4927214;28;20034;-78
2023/02/11 05:05:43;;;;;;;73.43;35.13;;;6.30;99.90;;;4.77;100.00;101797.63;4953523;28;20038;-78
2023/02/11 05:08:10;;;;;;;83.30;38.75;;;6.30;99.90;;;4.79;100.00;101790.66;4931563;28;20037;-78
2023/02/11 05:10:41;;;;;;;79.80;36.90;;;6.30;99.90;;;4.80;100.00;101795.00;4957045;28;20034;-78
2023/02/11 05:13:07;;;;;;;84.90;37.75;;;6.30;99.90;;;4.76;100.00;101801.09;4968269;28;20033;-78
2023/02/11 05:15:33;;;;;;;86.30;36.60;;;6.30;99.90;;;4.79;100.00;101806.31;4964184;28;20595;-77
2023/02/11 05:17:58;;;;;;;81.35;38.13;;;6.30;99.90;;;4.82;100.00;101807.16;4974999;28;20139;-80
2023/02/11 05:20:24;;;;;;;81.57;35.83;;;6.30;99.90;;;4.81;100.00;101799.34;4934369;28;20549;-79
2023/02/11 05:22:50;;;;;;;80.15;34.10;;;6.30;99.90;;;4.84;100.00;101796.72;4936659;28;20606;-76
2023/02/11 05:25:25;;;;;;;88.80;37.70;;;6.40;99.90;;;4.81;100.00;101808.03;4896170;28;21219;-79
2023/02/11 05:27:51;;;;;;;87.72;37.78;;;6.30;99.90;;;4.81;100.00;101799.34;4931097;28;20071;-77
2023/02/11 05:30:16;;;;;;;87.50;38.13;;;6.40;99.90;;;4.84;100.00;101799.34;4946536;28;20097;-78
2023/02/11 05:32:42;;;;;;;83.20;36.63;;;6.40;99.90;;;4.82;100.00;101793.25;4982045;28;20030;-78
2023/02/11 05:35:10;;;;;;;83.72;34.00;;;6.40;99.90;;;4.84;100.00;101781.94;4964709;28;20057;-79
2023/02/11 05:37:36;;;;;;;76.13;33.40;;;6.40;99.90;;;4.86;100.00;101787.13;4947328;28;20030;-79
2023/02/11 05:40:03;;;;;;;75.38;35.67;;;6.40;99.90;;;4.86;100.00;101777.56;4927449;28;20046;-76
2023/02/11 05:42:29;;;;;;;83.57;34.85;;;6.40;99.90;;;4.85;100.00;101767.13;4957301;28;20042;-78
2023/02/11 05:44:55;;;;;;;69.95;31.48;;;6.40;99.90;;;4.88;100.00;101767.09;4945445;28;20085;-77
2023/02/11 05:47:20;;;;;;;85.32;34.00;;;6.40;99.90;;;4.91;100.00;101752.28;4936685;28;20045;-77
2023/02/11 05:49:46;;;;;;;70.97;32.38;;;6.50;99.90;;;4.96;100.00;101749.66;4946319;28;20558;-79
2023/02/11 05:52:15;;;;;;;70.93;33.03;;;6.50;99.90;;;4.96;100.00;101744.44;4917403;28;20033;-78
2023/02/11 05:54:41;;;;;;;73.65;32.42;;;6.50;99.90;;;4.96;100.00;101727.91;4968948;28;20035;-78
2023/02/11 05:57:07;;;;;;;71.10;32.47;;;6.50;99.90;;;5.02;100.00;101725.25;4950885;28;20042;-78
2023/02/11 05:59:32;;;;;;;64.07;31.00;;;6.50;99.90;;;5.01;100.00;101726.13;4922108;28;20084;-78
2023/02/11 06:01:58;;;;;;;68.30;29.92;;;6.50;99.90;;;5.06;100.00;101742.63;4982715;28;20503;-79
2023/02/11 06:04:24;;;;;;;62.33;28.25;;;6.60;99.90;;;5.06;100.00;101755.69;4957380;28;20049;-79
2023/02/11 06:06:50;;;;;;;55.05;28.63;;;6.60;99.90;;;5.08;100.00;101753.94;4935675;28;20030;-78
2023/02/11 06:09:21;;;;;;;57.92;27.70;;;6.60;99.90;;;5.05;100.00;101749.56;4951622;28;20026;-77
2023/02/11 06:11:46;;;;;;;61.72;27.15;;;6.60;99.90;;;5.11;100.00;101759.13;4927580;28;20546;-78
2023/02/11 06:14:13;;;;;;;69.55;29.10;;;6.60;99.90;;;5.16;100.00;101756.47;4945553;28;20030;-78
2023/02/11 06:16:39;;;;;;;54.00;27.85;;;6.70;99.90;;;5.18;100.00;101760.78;4922268;28;20034;-79
2023/02/11 06:19:05;;;;;;;45.08;18.30;;;6.70;99.90;;;5.19;100.00;101761.69;4942844;28;20147;-79
2023/02/11 06:21:38;;;;;;;46.75;22.55;;;6.70;99.90;;;5.20;100.00;101771.22;4961750;28;20035;-78
2023/02/11 06:24:05;;;;;;;48.97;24.38;;;6.70;99.90;;;5.20;100.00;101769.47;4949825;28;20118;-77
2023/02/11 06:26:31;;;;;;;52.28;24.65;;;6.70;99.90;;;5.26;100.00;101779.03;4905489;28;20030;-80
2023/02/11 06:29:03;;;;;;;56.25;25.70;;;6.70;99.90;;;5.29;100.00;101782.50;4914379;28;20121;-79
2023/02/11 06:31:29;;;;;;;54.95;25.27;;;6.80;99.90;;;5.35;100.00;101789.38;4948400;28;20111;-77
2023/02/11 06:33:55;;;;;;;55.83;24.73;;;6.80;99.90;;;5.36;100.00;101780.69;4946920;28;20113;-77
2023/02/11 06:36:22;;;;;;;53.33;25.05;;;6.80;99.90;;;5.37;100.00;101771.97;4916418;28;20118;-78
2023/02/11 06:38:48;;;;;;;53.10;24.60;;;6.90;99.90;;;5.44;100.00;101767.56;4910657;28;20113;-79
2023/02/11 06:41:25;;;;;;;51.08;22.83;;;6.90;99.90;;;5.46;100.00;101763.19;4934517;28;20026;-79
2023/02/11 06:43:52;;;;;;;45.03;22.73;;;6.90;99.90;;;5.46;100.00;101750.97;4956870;28;20038;-77
2023/02/11 06:46:18;;;;;;;38.80;19.05;;;6.90;99.90;;;5.46;100.00;101752.72;4953210;28;20045;-78
2023/02/11 06:48:53;;;;;;;37.95;16.38;;;6.90;99.90;;;5.44;100.00;101750.16;4958259;28;20053;-78
2023/02/11 06:51:19;;;;;;;48.40;20.73;;;6.90;99.90;;;5.48;100.00;101744.00;4941582;28;20054;-78
2023/02/11 06:53:46;;;;;;;46.17;20.70;;;7.00;99.90;;;5.55;100.00;101726.53;4986005;28;20038;-78
2023/02/11 06:56:19;;;;;;;36.53;18.48;;;7.00;99.90;;;5.58;100.00;101728.25;4959233;28;20085;-79
2023/02/11 06:58:45;;;;;;;45.03;20.15;;;7.10;99.90;;;5.61;100.00;101726.47;4958485;28;20069;-78
2023/02/11 07:01:14;;;;;;;35.72;17.65;;;7.10;99.90;;;5.63;100.00;101739.50;4924050;28;20050;-78
2023/02/11 07:03:45;;;;;;;37.05;15.85;;;7.10;99.90;;;5.63;100.00;101750.81;4949280;28;20117;-79
2023/02/11 07:06:26;;;;;;;38.10;17.20;;;7.10;99.90;;;5.65;100.00;101761.28;4956049;28;20037;-78
2023/02/11 07:08:54;;;;;;;33.25;16.50;;;7.10;99.90;;;5.68;100.00;101766.47;4929563;28;20129;-77
2023/02/11 07:11:31;;;;;;;34.67;17.10;;;7.20;99.90;;;5.72;100.00;101762.94;4938817;28;20129;-78
2023/02/11 07:14:09;;;;;;;40.47;16.05;;;7.20;99.90;;;5.75;100.00;101783.84;4929109;28;20041;-79
2023/02/11 07:16:37;;;;;;;33.65;15.43;;;7.20;99.90;;;5.79;100.00;101800.31;4965388;28;20062;-78
2023/02/11 07:19:02;;;;;;;35.97;14.45;;;7.20;99.90;;;5.81;100.00;101788.09;4922886;28;20141;-77
2023/02/11 07:21:28;;;;;;;33.08;14.07;;;7.30;99.90;;;5.82;100.00;101793.34;4920742;28;20057;-78
2023/02/11 07:23:54;;;;;;;35.97;15.63;;;7.30;99.90;;;5.88;100.00;101815.94;4949949;28;20116;-79
2023/02/11 07:26:32;;;;;;;25.70;12.45;;;7.30;99.90;;;5.89;100.00;101835.97;4931140;28;20526;-78
2023/02/11 07:28:58;;;;;;;28.58;13.35;;;7.30;99.90;;;5.83;100.00;101836.00;4966863;28;20035;-79
2023/02/11 07:31:28;;;;;;;37.50;15.52;;;7.40;99.90;;;5.93;100.00;101843.75;4943988;28;20051;-78
2023/02/11 07:33:58;;;;;;;36.08;14.70;;;7.40;99.90;;;5.97;100.00;101846.41;4946688;28;20641;-78
2023/02/11 07:36:25;;;;;;;34.90;15.52;;;7.40;99.90;;;6.01;100.00;101843.72;4967669;28;20101;-78
2023/02/11 07:38:51;;;;;;;32.65;12.45;;;7.50;99.90;;;6.04;100.00;101850.66;4976114;28;20056;-77
2023/02/11 07:41:21;;;;;;;34.22;13.98;;;7.50;99.90;;;6.08;100.00;101849.75;4955355;28;20441;-79
2023/02/11 07:43:48;;;;;;;37.83;13.63;;;7.50;99.90;;;6.01;100.00;101842.88;4971969;28;20033;-80
2023/02/11 07:46:24;;;;;;;28.23;13.52;;;7.50;99.90;;;6.08;100.00;101849.75;4941054;28;20119;-78
2023/02/11 07:48:51;;;;;;;35.40;14.70;;;7.50;99.90;;;6.06;100.00;101831.47;4945968;28;20054;-76
2023/02/11 07:51:22;;;;;;;33.95;15.13;;;7.50;99.90;;;6.09;100.00;101830.56;4947954;28;20045;-78
2023/02/11 07:53:58;;;;;;;29.38;11.00;;;7.50;99.90;;;6.03;100.00;101839.34;4921652;28;20223;-78
2023/02/11 07:56:24;;;;;;;32.40;13.80;;;7.50;99.90;;;6.02;100.00;101834.13;4957348;28;20807;-79
2023/02/11 07:58:58;;;;;;;29.67;11.30;;;7.50;99.90;;;5.97;100.00;101830.72;4950197;28;20053;-79
2023/02/11 08:01:27;;;;;;;36.97;14.35;;;7.50;99.90;;;5.98;100.00;101825.44;4974676;28;20049;-78
2023/02/11 08:04:04;;;;;;;25.83;10.57;;;7.50;99.90;;;6.00;100.00;101830.66;4963987;28;20048;-77
2023/02/11 08:06:34;;;;;;;43.55;16.88;;;7.50;99.90;;;6.03;100.00;101848.94;4965018;28;20074;-79
2023/02/11 08:09:13;;;;;;;40.50;16.15;;;7.50;99.90;;;6.02;100.00;101836.75;4918487;28;20166;-79
2023/02/11 08:11:45;;;;;;;21.98;9.70;;;7.50;99.90;;;5.99;100.00;101821.09;4939466;28;20046;-78
2023/02/11 08:14:11;;;;;;;33.95;13.35;;;7.50;99.90;;;6.01;100.00;101829.78;4925365;28;20042;-77
2023/02/11 08:16:38;;;;;;;27.25;10.82;;;7.50;99.90;;;5.95;100.00;101823.72;4966817;28;20542;-79
2023/02/11 08:19:16;;;;;;;35.10;13.85;;;7.50;99.90;;;5.97;100.00;101849.88;4929098;28;20038;-77
2023/02/11 08:21:42;;;;;;;30.02;11.68;;;7.50;99.90;;;5.99;100.00;101855.09;4960682;28;20514;-82
2023/02/11 08:24:16;;;;;;;47.35;18.20;;;7.40;99.90;;;5.93;100.00;101861.19;4957054;28;21333;-81
2023/02/11 08:26:42;;;;;;;45.25;18.08;;;7.50;99.90;;;5.98;100.00;101875.13;4899548;28;20043;-79
2023/02/11 08:29:12;;;;;;;27.92;11.25;;;7.50;99.90;;;5.95;100.00;101876.00;4926198;28;21687;-79
2023/02/11 08:31:55;;;;;;;41.45;13.43;;;7.50;99.90;;;5.96;100.00;101866.41;4930858;28;20117;-81
2023/02/11 08:34:26;;;;;;;44.50;15.43;;;7.50;99.90;;;6.01;100.00;101869.00;4971948;28;20152;-79
2023/02/11 08:36:52;;;;;;;38.55;15.30;;;7.50;99.90;;;6.06;100.00;101878.53;4953875;28;20041;-79
2023/02/11 08:39:21;;;;;;;38.78;13.05;;;7.60;99.90;;;6.08;100.00;101875.91;4930889;28;20510;-79
2023/02/11 08:41:55;;;;;;;43.67;15.95;;;7.60;99.90;;;6.13;100.00;101868.88;4933787;28;20105;-77
2023/02/11 08:44:22;;;;;;;37.17;14.18;;;7.60;99.90;;;6.11;100.00;101862.78;4966196;28;20030;-77
2023/02/11 08:46:49;;;;;;;42.05;14.75;;;7.60;99.90;;;6.15;100.00;101840.97;4953927;28;20026;-78
2023/02/11 08:49:16;;;;;;;34.72;13.95;;;7.70;99.90;;;6.22;100.00;101853.13;4957873;28;20022;-77
2023/02/11 08:51:43;;;;;;;44.45;16.75;;;7.70;99.90;;;6.26;100.00;101864.38;4989778;28;20403;-77
2023/02/11 08:54:09;;;;;;;36.85;13.82;;;7.70;99.90;;;6.31;100.00;101873.94;4946132;28;20036;-78
2023/02/11 08:56:36;;;;;;;43.45;13.32;;;7.80;99.90;;;6.36;100.00;101882.59;4964413;28;20484;-78
2023/02/11 08:59:02;;;;;;;35.25;13.75;;;7.80;99.90;;;6.39;100.00;101886.06;4936257;28;20034;-78
2023/02/11 09:01:36;;;;;;;45.85;13.02;;;7.80;99.90;;;6.41;100.00;101879.91;4965371;28;20104;-78
2023/02/11 09:04:03;;;;;;;35.45;14.05;;;7.80;99.90;;;6.44;100.00;101879.03;4944430;28;20152;-77
2023/02/11 09:06:29;;;;;;;47.17;14.68;;;7.90;99.90;;;6.51;100.00;101875.47;4939637;28;20557;-78
2023/02/11 09:09:01;;;;;;;40.10;13.43;;;7.90;99.90;;;6.58;100.00;101893.69;4948856;28;20042;-77
2023/02/11 09:11:33;;;;;;;25.83;10.13;;;8.00;99.90;;;6.62;100.00;101899.75;4938035;28;20054;-78
2023/02/11 09:14:00;;;;;;;38.05;11.88;;;8.00;99.90;;;6.65;100.00;101888.38;4932051;28;20511;-77
2023/02/11 09:16:32;;;;;;;30.45;12.38;;;8.10;99.90;;;6.70;100.00;101876.13;4948817;28;20042;-77
2023/02/11 09:19:04;;;;;;;30.60;11.80;;;8.10;99.90;;;6.78;100.00;101864.66;4943409;28;20038;-78
2023/02/11 09:21:30;;;;;;;36.28;12.95;;;8.20;99.90;;;6.88;100.00;101856.69;4952678;28;20121;-77
2023/02/11 09:24:00;;;;;;;34.08;11.65;;;8.30;99.90;;;6.90;100.00;101847.06;4968720;28;20463;-77
2023/02/11 09:26:30;;;;;;;29.73;10.90;;;8.30;99.90;;;6.99;100.00;101846.94;4967661;28;20135;-78
2023/02/11 09:28:57;;;;;;;39.17;11.13;;;8.40;99.90;;;7.08;100.00;101832.84;4963997;28;20033;-78
2023/02/11 09:31:28;;;;;;;38.58;11.77;;;8.40;99.90;;;7.15;100.00;101822.25;4990929;28;20037;-78
2023/02/11 09:34:04;;;;;;;43.72;12.07;;;8.50;99.90;;;7.19;100.00;101829.19;4965700;28;20038;-77
2023/02/11 09:36:36;;;;;;;35.72;12.57;;;8.60;99.90;;;7.27;100.00;101831.69;4988905;28;20038;-78
2023/02/11 09:39:13;;;;;;;36.80;10.45;;;8.60;99.90;;;7.27;100.00;101847.41;4956687;28;20046;-79
2023/02/11 09:42:04;;;;;;;31.48;9.27;;;8.60;99.90;;;7.27;100.00;101862.25;4962514;28;20061;-77
2023/02/11 09:44:43;;;;;;;36.97;10.05;;;8.60;99.90;;;7.29;100.00;101873.59;4967847;28;20069;-78
2023/02/11 09:47:33;;;;;;;32.42;8.30;;;8.60;99.90;;;7.32;100.00;101887.50;4979654;28;20034;-77
2023/02/11 09:50:20;;;;;;;28.95;9.52;;;8.70;99.90;;;7.36;100.00;101896.19;4983767;28;20037;-77
2023/02/11 09:53:22;;;;;;;27.83;9.05;;;8.70;99.90;;;7.41;100.00;101915.34;4967442;28;20447;-78
2023/02/11 09:55:58;;;;;;;29.77;7.60;;;8.70;99.90;;;7.39;100.00;101920.59;4971024;28;20793;-77
2023/02/11 09:58:30;;;;;;;34.33;7.78;;;8.80;99.90;;;7.49;100.00;101921.31;4961631;28;20034;-76
2023/02/11 10:01:26;;;;;;;31.92;7.45;;;8.90;99.90;;;7.58;100.00;101923.81;4961944;28;20124;-76
2023/02/11 10:04:36;;;;;;;22.05;7.18;;;8.90;99.90;;;7.59;100.00;101922.06;4939575;28;20033;-77
2023/02/11 10:07:45;;;;;;;27.83;7.43;;;8.90;99.90;;;7.62;100.00;101927.25;4973239;28;21258;-78
2023/02/11 10:10:40;;;;;;;25.92;7.40;;;9.00;99.90;;;7.70;100.00;101935.84;4931688;28;20122;-77
2023/02/11 10:13:31;;;;;;;16.10;5.72;;;9.10;99.90;;;7.81;100.00;101926.06;4955008;28;20037;-78
2023/02/11 10:16:56;;;;;;;0.98;0.98;;;9.20;99.90;;;7.97;100.00;101936.34;4966654;28;20053;-78
2023/02/11 10:19:43;;;;;;;26.42;6.53;;;9.30;99.90;;;7.96;100.00;101929.34;4973379;28;20045;-77
2023/02/11 10:22:31;;;;;;;24.38;5.78;;;9.30;99.90;;;8.02;100.00;101919.59;4982339;28;20263;-77
2023/02/11 10:24:59;;;;;;;17.75;5.10;;;9.40;99.90;;;8.12;100.00;101928.19;4959301;28;20046;-77
2023/02/11 10:27:35;;;;;;;24.52;5.43;;;9.40;99.90;;;8.24;100.00;101932.34;4987535;28;20030;-78
2023/02/11 10:30:32;;;;;;;19.27;4.72;;;9.50;99.90;;;8.39;100.00;101925.97;4966538;28;20606;-78
2023/02/11 10:33:42;;;;;;;15.65;4.05;;;9.60;99.90;;;8.38;100.00;101932.97;4980298;28;20037;-78
2023/02/11 10:36:17;;;;;;;17.98;4.00;;;9.60;99.90;;;8.58;100.00;101924.75;4993789;28;20498;-77
2023/02/11 10:38:43;;;;;;;24.70;4.97;;;10.10;99.90;;;8.75;99.13;101937.56;4954128;28;20038;-78